createdAt,value
2018-07-29T00:00:41.386Z,81.42
2018-07-29T00:01:41.317Z,82.29
2018-07-29T00:02:41.244Z,82.29
2018-07-29T00:03:41.179Z,82.39
2018-07-29T00:04:41.106Z,80.84
2018-07-29T00:05:41.036Z,81.32
2018-07-29T00:06:40.962Z,81.04
2018-07-29T00:07:40.898Z,81.13
2018-07-29T00:08:40.825Z,81.32
2018-07-29T00:09:40.751Z,81.23
2018-07-29T00:10:40.681Z,82.10
2018-07-29T00:11:40.609Z,81.90
2018-07-29T00:12:40.544Z,81.62
2018-07-29T00:13:40.473Z,82.00
2018-07-29T00:14:40.400Z,81.62
2018-07-29T00:15:40.337Z,82.10
2018-07-29T00:16:40.261Z,82.10
2018-07-29T00:17:40.187Z,82.10
2018-07-29T00:18:40.114Z,82.58
2018-07-29T00:19:40.048Z,82.29
2018-07-29T00:20:39.976Z,82.87
2018-07-29T00:21:39.912Z,82.78
2018-07-29T00:22:39.834Z,82.97
2018-07-29T00:23:39.760Z,82.83
2018-07-29T00:24:39.711Z,82.78
2018-07-29T00:25:39.623Z,83.16
2018-07-29T00:26:39.552Z,83.55
2018-07-29T00:27:39.485Z,83.16
2018-07-29T00:28:39.409Z,84.13
2018-07-29T00:29:39.341Z,84.52
2018-07-29T00:30:39.275Z,83.45
2018-07-29T00:31:39.224Z,83.26
2018-07-29T00:32:39.127Z,83.26
2018-07-29T00:33:39.062Z,83.94
2018-07-29T00:34:38.987Z,83.55
2018-07-29T00:35:38.913Z,83.45
2018-07-29T00:36:38.843Z,83.84
2018-07-29T00:37:38.775Z,84.03
2018-07-29T00:38:38.705Z,84.03
2018-07-29T00:39:38.640Z,84.22
2018-07-29T00:40:38.561Z,85.39
2018-07-29T00:41:38.492Z,85.87
2018-07-29T00:42:38.418Z,86.35
2018-07-29T00:43:38.352Z,86.35
2018-07-29T00:44:38.281Z,85.39
2018-07-29T00:45:38.214Z,85.58
2018-07-29T00:46:38.139Z,85.29
2018-07-29T00:47:38.104Z,85.29
2018-07-29T00:48:37.997Z,85.29
2018-07-29T00:49:37.926Z,85.29
2018-07-29T00:50:37.857Z,86.16
2018-07-29T00:51:37.795Z,85.48
2018-07-29T00:52:37.717Z,86.74
2018-07-29T00:53:37.642Z,86.65
2018-07-29T00:54:37.570Z,86.83
2018-07-29T00:55:37.505Z,86.35
2018-07-29T00:56:37.430Z,85.77
2018-07-29T00:57:37.358Z,86.45
2018-07-29T00:58:37.300Z,86.41
2018-07-29T00:59:37.217Z,86.02
2018-07-29T01:00:37.146Z,86.21
2018-07-29T01:01:37.079Z,86.16
2018-07-29T01:02:37.006Z,86.11
2018-07-29T01:03:36.935Z,86.06
2018-07-29T01:04:36.867Z,86.16
2018-07-29T01:05:36.797Z,87.51
2018-07-29T01:06:36.724Z,87.27
2018-07-29T01:07:36.655Z,86.31
2018-07-29T01:08:36.583Z,86.11
2018-07-29T01:09:36.513Z,86.51
2018-07-29T01:10:36.439Z,87.95
2018-07-29T01:11:36.382Z,87.18
2018-07-29T01:12:36.304Z,87.27
2018-07-29T01:13:36.227Z,86.69
2018-07-29T01:14:36.158Z,86.89
2018-07-29T01:15:36.089Z,86.99
2018-07-29T01:16:36.022Z,86.89
2018-07-29T01:17:35.957Z,86.89
2018-07-29T01:18:35.873Z,87.18
2018-07-29T01:19:35.809Z,87.57
2018-07-29T01:20:35.735Z,88.19
2018-07-29T01:21:35.662Z,87.66
2018-07-29T01:22:35.588Z,87.18
2018-07-29T01:23:35.530Z,88.24
2018-07-29T01:24:35.449Z,86.93
2018-07-29T01:25:35.383Z,86.69
2018-07-29T01:26:35.308Z,87.37
2018-07-29T01:27:35.238Z,87.27
2018-07-29T01:28:35.169Z,87.57
2018-07-29T01:29:35.104Z,89.01
2018-07-29T01:30:35.027Z,88.53
2018-07-29T01:31:34.955Z,88.15
2018-07-29T01:32:34.884Z,89.01
2018-07-29T01:33:34.817Z,91.24
2018-07-29T01:34:34.741Z,90.85
2018-07-29T01:35:34.678Z,92.21
2018-07-29T01:36:34.603Z,92.69
2018-07-29T01:37:34.529Z,93.27
2018-07-29T01:38:34.457Z,93.66
2018-07-29T01:39:34.389Z,93.17
2018-07-29T01:40:34.335Z,93.08
2018-07-29T01:41:34.255Z,92.30
2018-07-29T01:42:34.183Z,93.17
2018-07-29T01:43:34.108Z,92.59
2018-07-29T01:44:34.031Z,92.11
2018-07-29T01:45:33.963Z,91.24
2018-07-29T01:46:33.956Z,90.85
2018-07-29T01:47:33.824Z,90.08
2018-07-29T01:48:33.759Z,89.89
2018-07-29T01:49:33.695Z,90.37
2018-07-29T01:50:33.614Z,90.75
2018-07-29T01:51:33.541Z,90.27
2018-07-29T01:52:33.463Z,90.47
2018-07-29T01:53:33.395Z,90.27
2018-07-29T01:54:33.328Z,90.37
2018-07-29T01:55:33.252Z,90.37
2018-07-29T01:56:33.186Z,89.69
2018-07-29T01:57:33.116Z,89.89
2018-07-29T01:58:33.039Z,89.21
2018-07-29T01:59:32.971Z,89.50
2018-07-29T02:00:32.907Z,89.50
2018-07-29T02:01:32.832Z,89.40
2018-07-29T02:02:32.755Z,89.69
2018-07-29T02:03:32.683Z,89.50
2018-07-29T02:04:32.621Z,89.69
2018-07-29T02:05:32.546Z,90.17
2018-07-29T02:06:32.480Z,90.47
2018-07-29T02:07:32.404Z,90.85
2018-07-29T02:08:32.330Z,90.81
2018-07-29T02:09:32.269Z,90.56
2018-07-29T02:10:32.187Z,91.77
2018-07-29T02:11:32.116Z,90.95
2018-07-29T02:12:32.054Z,91.19
2018-07-29T02:13:31.977Z,91.39
2018-07-29T02:14:31.905Z,91.53
2018-07-29T02:15:31.833Z,91.58
2018-07-29T02:16:31.760Z,91.97
2018-07-29T02:17:31.693Z,91.39
2018-07-29T02:18:31.644Z,90.61
2018-07-29T02:19:31.549Z,90.56
2018-07-29T02:20:31.481Z,90.42
2018-07-29T02:21:31.407Z,90.52
2018-07-29T02:22:31.343Z,90.13
2018-07-29T02:23:31.268Z,90.33
2018-07-29T02:24:31.208Z,90.47
2018-07-29T02:25:31.129Z,91.09
2018-07-29T02:26:31.052Z,91.19
2018-07-29T02:27:30.982Z,90.61
2018-07-29T02:28:30.911Z,91.00
2018-07-29T02:29:30.846Z,91.00
2018-07-29T02:30:30.779Z,91.19
2018-07-29T02:31:30.698Z,91.39
2018-07-29T02:32:30.627Z,91.49
2018-07-29T02:33:30.562Z,91.39
2018-07-29T02:34:30.489Z,91.29
2018-07-29T02:35:30.412Z,91.77
2018-07-29T02:36:30.351Z,90.91
2018-07-29T02:37:30.275Z,91.87
2018-07-29T02:38:30.200Z,92.35
2018-07-29T02:39:30.132Z,92.07
2018-07-29T02:40:30.058Z,91.58
2018-07-29T02:41:29.990Z,91.39
2018-07-29T02:42:29.923Z,91.19
2018-07-29T02:43:29.848Z,91.58
2018-07-29T02:44:29.783Z,91.29
2018-07-29T02:45:29.709Z,91.00
2018-07-29T02:46:29.634Z,90.91
2018-07-29T02:47:29.559Z,91.87
2018-07-29T02:48:29.494Z,90.81
2018-07-29T02:49:29.421Z,91.67
2018-07-29T02:50:29.372Z,91.58
2018-07-29T02:51:29.278Z,91.87
2018-07-29T02:52:29.218Z,92.07
2018-07-29T02:53:29.138Z,92.69
2018-07-29T02:54:29.063Z,93.18
2018-07-29T02:55:28.995Z,92.93
2018-07-29T02:56:28.944Z,93.13
2018-07-29T02:57:28.856Z,92.93
2018-07-29T02:58:28.785Z,93.18
2018-07-29T02:59:28.708Z,93.13
2018-07-29T03:00:28.642Z,93.41
2018-07-29T03:01:28.588Z,93.08
2018-07-29T03:02:28.502Z,94.09
2018-07-29T03:03:28.424Z,94.09
2018-07-29T03:04:28.355Z,93.37
2018-07-29T03:05:28.287Z,93.47
2018-07-29T03:06:28.215Z,92.93
2018-07-29T03:07:28.139Z,93.90
2018-07-29T03:08:28.075Z,93.95
2018-07-29T03:09:28.026Z,94.14
2018-07-29T03:10:27.931Z,93.85
2018-07-29T03:11:27.853Z,94.24
2018-07-29T03:12:27.785Z,94.14
2018-07-29T03:13:27.725Z,94.82
2018-07-29T03:14:27.641Z,94.82
2018-07-29T03:15:27.567Z,94.62
2018-07-29T03:16:27.546Z,94.72
2018-07-29T03:17:27.427Z,94.92
2018-07-29T03:18:27.353Z,95.30
2018-07-29T03:19:27.288Z,95.30
2018-07-29T03:20:27.211Z,94.92
2018-07-29T03:21:27.151Z,94.62
2018-07-29T03:22:27.068Z,95.30
2018-07-29T03:23:27.004Z,95.78
2018-07-29T03:24:26.925Z,95.78
2018-07-29T03:25:26.858Z,95.01
2018-07-29T03:26:26.784Z,95.11
2018-07-29T03:27:26.713Z,95.01
2018-07-29T03:28:26.643Z,95.20
2018-07-29T03:29:26.568Z,94.82
2018-07-29T03:30:26.496Z,95.59
2018-07-29T03:31:26.431Z,95.59
2018-07-29T03:32:26.358Z,96.08
2018-07-29T03:33:26.281Z,96.17
2018-07-29T03:34:26.207Z,95.78
2018-07-29T03:35:26.137Z,95.98
2018-07-29T03:36:26.075Z,95.88
2018-07-29T03:37:26.006Z,95.68
2018-07-29T03:38:25.924Z,95.88
2018-07-29T03:39:25.856Z,95.88
2018-07-29T03:40:25.788Z,96.94
2018-07-29T03:41:25.710Z,96.12
2018-07-29T03:42:25.638Z,96.66
2018-07-29T03:43:25.577Z,96.56
2018-07-29T03:44:25.497Z,96.03
2018-07-29T03:45:25.425Z,96.51
2018-07-29T03:46:25.364Z,96.66
2018-07-29T03:47:25.284Z,96.61
2018-07-29T03:48:25.215Z,96.51
2018-07-29T03:49:25.142Z,96.89
2018-07-29T03:50:25.067Z,96.61
2018-07-29T03:51:24.995Z,96.03
2018-07-29T03:52:24.923Z,96.03
2018-07-29T03:53:24.857Z,95.83
2018-07-29T03:54:24.783Z,96.61
2018-07-29T03:55:24.712Z,95.93
2018-07-29T03:56:24.644Z,96.70
2018-07-29T03:57:24.565Z,96.17
2018-07-29T03:58:24.494Z,96.80
2018-07-29T03:59:24.426Z,96.80
2018-07-29T04:00:24.357Z,96.22
2018-07-29T04:01:24.293Z,96.12
2018-07-29T04:02:24.208Z,97.09
2018-07-29T04:03:24.141Z,96.61
2018-07-29T04:04:24.065Z,96.61
2018-07-29T04:05:23.998Z,96.31
2018-07-29T04:06:23.930Z,96.22
2018-07-29T04:07:23.853Z,96.12
2018-07-29T04:08:23.777Z,96.61
2018-07-29T04:09:23.709Z,96.41
2018-07-29T04:10:23.635Z,96.41
2018-07-29T04:11:23.591Z,96.41
2018-07-29T04:12:23.507Z,96.70
2018-07-29T04:13:23.429Z,95.93
2018-07-29T04:14:23.359Z,96.22
2018-07-29T04:15:23.283Z,96.61
2018-07-29T04:16:23.203Z,96.22
2018-07-29T04:17:23.133Z,97.19
2018-07-29T04:18:23.061Z,96.61
2018-07-29T04:19:23.015Z,96.99
2018-07-29T04:20:22.919Z,96.03
2018-07-29T04:21:22.846Z,96.70
2018-07-29T04:22:22.776Z,96.99
2018-07-29T04:23:22.711Z,96.12
2018-07-29T04:24:22.631Z,96.12
2018-07-29T04:25:22.596Z,96.22
2018-07-29T04:26:22.512Z,96.61
2018-07-29T04:27:22.418Z,96.70
2018-07-29T04:28:22.345Z,96.31
2018-07-29T04:29:22.275Z,96.70
2018-07-29T04:30:22.205Z,96.03
2018-07-29T04:31:22.129Z,96.31
2018-07-29T04:32:22.066Z,95.54
2018-07-29T04:33:21.993Z,96.03
2018-07-29T04:34:21.917Z,96.03
2018-07-29T04:35:21.842Z,96.51
2018-07-29T04:36:21.781Z,96.61
2018-07-29T04:37:21.704Z,96.31
2018-07-29T04:38:21.637Z,96.61
2018-07-29T04:39:21.569Z,96.31
2018-07-29T04:40:21.490Z,96.51
2018-07-29T04:41:21.415Z,96.70
2018-07-29T04:42:21.343Z,96.51
2018-07-29T04:43:21.293Z,96.61
2018-07-29T04:44:21.212Z,96.41
2018-07-29T04:45:21.132Z,96.46
2018-07-29T04:46:21.059Z,96.41
2018-07-29T04:47:20.995Z,96.17
2018-07-29T04:48:20.914Z,96.66
2018-07-29T04:49:20.855Z,96.36
2018-07-29T04:50:20.787Z,96.17
2018-07-29T04:51:20.750Z,96.66
2018-07-29T04:52:20.634Z,96.26
2018-07-29T04:53:20.562Z,96.75
2018-07-29T04:54:20.491Z,95.98
2018-07-29T04:55:20.419Z,96.46
2018-07-29T04:56:20.342Z,96.17
2018-07-29T04:57:20.274Z,97.14
2018-07-29T04:58:20.199Z,96.56
2018-07-29T04:59:20.133Z,96.75
2018-07-29T05:00:20.056Z,96.46
2018-07-29T05:01:19.994Z,96.56
2018-07-29T05:02:19.919Z,96.66
2018-07-29T05:03:19.843Z,96.17
2018-07-29T05:04:19.771Z,95.50
2018-07-29T05:05:19.703Z,95.11
2018-07-29T05:06:19.634Z,94.67
2018-07-29T05:07:19.569Z,94.29
2018-07-29T05:08:19.486Z,94.29
2018-07-29T05:09:19.418Z,94.34
2018-07-29T05:10:19.345Z,94.38
2018-07-29T05:11:19.272Z,94.34
2018-07-29T05:12:19.204Z,94.34
2018-07-29T05:13:19.141Z,94.24
2018-07-29T05:14:19.061Z,94.34
2018-07-29T05:15:18.990Z,94.24
2018-07-29T05:16:18.923Z,94.14
2018-07-29T05:17:18.866Z,94.43
2018-07-29T05:18:18.784Z,94.24
2018-07-29T05:19:18.703Z,93.95
2018-07-29T05:20:18.632Z,94.04
2018-07-29T05:21:18.571Z,94.34
2018-07-29T05:22:18.491Z,94.14
2018-07-29T05:23:18.419Z,93.90
2018-07-29T05:24:18.358Z,93.47
2018-07-29T05:25:18.275Z,93.71
2018-07-29T05:26:18.203Z,94.48
2018-07-29T05:27:18.136Z,94.29
2018-07-29T05:28:18.069Z,93.61
2018-07-29T05:29:17.998Z,93.51
2018-07-29T05:30:17.929Z,93.13
2018-07-29T05:31:17.850Z,93.41
2018-07-29T05:32:17.783Z,91.77
2018-07-29T05:33:17.712Z,91.58
2018-07-29T05:34:17.643Z,92.35
2018-07-29T05:35:17.567Z,91.87
2018-07-29T05:36:17.498Z,91.29
2018-07-29T05:37:17.432Z,92.07
2018-07-29T05:38:17.353Z,90.75
2018-07-29T05:39:17.283Z,91.24
2018-07-29T05:40:17.217Z,92.11
2018-07-29T05:41:17.141Z,91.91
2018-07-29T05:42:17.084Z,92.11
2018-07-29T05:43:17.003Z,91.24
2018-07-29T05:44:16.935Z,90.56
2018-07-29T05:45:16.918Z,89.79
2018-07-29T05:46:16.792Z,89.21
2018-07-29T05:47:16.714Z,88.92
2018-07-29T05:48:16.654Z,88.82
2018-07-29T05:49:16.577Z,88.92
2018-07-29T05:50:16.509Z,88.82
2018-07-29T05:51:16.434Z,87.85
2018-07-29T05:52:16.363Z,88.82
2018-07-29T05:53:16.299Z,88.82
2018-07-29T05:54:16.226Z,88.63
2018-07-29T05:55:16.158Z,88.05
2018-07-29T05:56:16.084Z,87.37
2018-07-29T05:57:16.043Z,87.37
2018-07-29T05:58:15.938Z,86.69
2018-07-29T05:59:15.869Z,87.08
2018-07-29T06:00:15.800Z,86.89
2018-07-29T06:01:15.746Z,87.27
2018-07-29T06:02:15.657Z,88.05
2018-07-29T06:03:15.584Z,88.34
2018-07-29T06:04:15.603Z,87.95
2018-07-29T06:05:15.444Z,88.15
2018-07-29T06:06:15.373Z,87.51
2018-07-29T06:07:15.318Z,86.69
2018-07-29T06:08:15.238Z,87.08
2018-07-29T06:09:15.169Z,87.18
2018-07-29T06:10:15.091Z,88.05
2018-07-29T06:11:15.022Z,88.05
2018-07-29T06:12:14.966Z,88.15
2018-07-29T06:13:14.883Z,87.85
2018-07-29T06:14:14.811Z,88.15
2018-07-29T06:15:14.746Z,88.63
2018-07-29T06:16:14.668Z,88.82
2018-07-29T06:17:14.597Z,88.05
2018-07-29T06:18:14.531Z,88.73
2018-07-29T06:19:14.464Z,89.01
2018-07-29T06:20:14.387Z,88.59
2018-07-29T06:21:14.320Z,88.82
2018-07-29T06:22:14.243Z,89.21
2018-07-29T06:23:14.175Z,88.63
2018-07-29T06:24:14.111Z,88.43
2018-07-29T06:25:14.041Z,89.01
2018-07-29T06:26:13.961Z,89.11
2018-07-29T06:27:13.896Z,88.92
2018-07-29T06:28:13.824Z,88.92
2018-07-29T06:29:13.750Z,88.63
2018-07-29T06:30:13.684Z,88.82
2018-07-29T06:31:13.657Z,88.53
2018-07-29T06:32:13.537Z,88.53
2018-07-29T06:33:13.465Z,88.92
2018-07-29T06:34:13.396Z,88.92
2018-07-29T06:35:13.330Z,87.66
2018-07-29T06:36:13.267Z,88.15
2018-07-29T06:37:13.194Z,88.73
2018-07-29T06:38:13.112Z,89.89
2018-07-29T06:39:13.048Z,88.63
2018-07-29T06:40:12.978Z,89.15
2018-07-29T06:41:12.901Z,87.41
2018-07-29T06:42:12.841Z,87.13
2018-07-29T06:43:12.766Z,88.19
2018-07-29T06:44:12.695Z,87.71
2018-07-29T06:45:12.618Z,88.09
2018-07-29T06:46:12.551Z,87.23
2018-07-29T06:47:12.478Z,86.93
2018-07-29T06:48:12.409Z,86.35
2018-07-29T06:49:12.336Z,86.83
2018-07-29T06:50:12.298Z,87.71
2018-07-29T06:51:12.199Z,87.32
2018-07-29T06:52:12.122Z,85.58
2018-07-29T06:53:12.080Z,85.58
2018-07-29T06:54:11.988Z,85.29
2018-07-29T06:55:11.911Z,84.52
2018-07-29T06:56:11.879Z,85.48
2018-07-29T06:57:11.776Z,85.29
2018-07-29T06:58:11.704Z,85.10
2018-07-29T06:59:11.634Z,85.68
2018-07-29T07:00:11.569Z,85.87
2018-07-29T07:01:11.495Z,85.39
2018-07-29T07:02:11.419Z,84.80
2018-07-29T07:03:11.387Z,85.10
2018-07-29T07:04:11.279Z,85.42
2018-07-29T07:05:11.215Z,84.94
2018-07-29T07:06:11.146Z,85.14
2018-07-29T07:07:11.066Z,85.04
2018-07-29T07:08:10.999Z,84.36
2018-07-29T07:09:10.926Z,83.59
2018-07-29T07:10:10.861Z,83.98
2018-07-29T07:11:10.785Z,83.88
2018-07-29T07:12:10.719Z,83.49
2018-07-29T07:13:10.645Z,84.27
2018-07-29T07:14:10.573Z,84.08
2018-07-29T07:15:10.506Z,83.59
2018-07-29T07:16:10.441Z,83.59
2018-07-29T07:17:10.369Z,83.78
2018-07-29T07:18:10.377Z,83.20
2018-07-29T07:19:10.229Z,82.91
2018-07-29T07:20:10.154Z,82.53
2018-07-29T07:21:10.090Z,81.65
2018-07-29T07:22:10.013Z,81.56
2018-07-29T07:23:09.950Z,81.56
2018-07-29T07:24:09.881Z,81.37
2018-07-29T07:25:09.806Z,81.75
2018-07-29T07:26:09.781Z,82.04
2018-07-29T07:27:09.672Z,82.23
2018-07-29T07:28:09.589Z,82.18
2018-07-29T07:29:09.522Z,81.60
2018-07-29T07:30:09.455Z,82.28
2018-07-29T07:31:09.382Z,81.98
2018-07-29T07:32:09.315Z,81.60
2018-07-29T07:33:09.246Z,81.40
2018-07-29T07:34:09.174Z,81.12
2018-07-29T07:35:09.107Z,81.12
2018-07-29T07:36:09.036Z,81.12
2018-07-29T07:37:08.961Z,80.15
2018-07-29T07:38:08.895Z,80.05
2018-07-29T07:39:08.818Z,80.15
2018-07-29T07:40:08.760Z,80.15
2018-07-29T07:41:08.683Z,80.05
2018-07-29T07:42:08.691Z,79.70
2018-07-29T07:43:08.648Z,79.76
2018-07-29T07:44:08.593Z,79.50
2018-07-29T07:45:08.456Z,79.22
2018-07-29T07:46:08.417Z,79.08
2018-07-29T07:47:08.385Z,79.70
2018-07-29T07:48:08.312Z,79.50
2018-07-29T07:49:08.120Z,79.22
2018-07-29T07:50:09.947Z,78.54
2018-07-29T07:51:07.984Z,78.05
2018-07-29T07:52:07.916Z,77.96
2018-07-29T07:53:07.934Z,78.34
2018-07-29T07:54:08.679Z,78.15
2018-07-29T07:55:07.760Z,78.74
2018-07-29T07:56:07.712Z,78.54
2018-07-29T07:57:07.676Z,78.44
2018-07-29T07:58:07.547Z,77.96
2018-07-29T07:59:07.488Z,78.34
2018-07-29T08:00:07.362Z,78.25
2018-07-29T08:01:07.398Z,78.44
2018-07-29T08:02:07.297Z,78.15
2018-07-29T08:03:08.114Z,78.15
2018-07-29T08:04:07.074Z,76.89
2018-07-29T08:05:07.047Z,77.09
2018-07-29T08:06:06.937Z,78.05
2018-07-29T08:07:06.864Z,77.28
2018-07-29T08:08:06.793Z,77.28
2018-07-29T08:09:06.739Z,76.83
2018-07-29T08:10:06.656Z,76.45
2018-07-29T08:11:06.584Z,76.25
2018-07-29T08:12:06.534Z,76.06
2018-07-29T08:13:06.448Z,75.96
2018-07-29T08:14:06.382Z,75.57
2018-07-29T08:15:06.318Z,75.67
2018-07-29T08:16:06.278Z,75.57
2018-07-29T08:17:06.175Z,75.19
2018-07-29T08:18:06.106Z,74.99
2018-07-29T08:19:06.030Z,75.19
2018-07-29T08:20:05.958Z,74.80
2018-07-29T08:21:05.908Z,75.19
2018-07-29T08:22:05.850Z,75.48
2018-07-29T08:23:05.752Z,76.45
2018-07-29T08:24:05.687Z,77.12
2018-07-29T08:25:05.644Z,76.97
2018-07-29T08:26:05.561Z,76.39
2018-07-29T08:27:05.512Z,75.90
2018-07-29T08:28:05.446Z,76.58
2018-07-29T08:29:05.333Z,76.58
2018-07-29T08:30:05.283Z,76.48
2018-07-29T08:31:05.203Z,77.16
2018-07-29T08:32:05.149Z,76.58
2018-07-29T08:33:05.055Z,75.42
2018-07-29T08:34:05.008Z,76.39
2018-07-29T08:35:04.918Z,75.94
2018-07-29T08:36:04.856Z,76.32
2018-07-29T08:37:04.820Z,74.97
2018-07-29T08:38:04.714Z,73.80
2018-07-29T08:39:04.666Z,73.71
2018-07-29T08:40:04.574Z,73.90
2018-07-29T08:41:04.502Z,74.19
2018-07-29T08:42:04.431Z,73.71
2018-07-29T08:43:04.375Z,74.00
2018-07-29T08:45:46.961Z,73.94
2018-07-29T08:46:46.811Z,73.74
2018-07-29T08:48:50.795Z,72.58
2018-07-29T08:49:50.676Z,70.15
2018-07-29T08:51:54.556Z,70.06
2018-07-29T08:52:54.435Z,70.15
2018-07-29T08:54:58.280Z,70.54
2018-07-29T08:55:58.209Z,70.06
2018-07-29T08:58:02.101Z,71.80
2018-07-29T08:59:01.979Z,71.64
2018-07-29T09:01:05.812Z,69.02
2018-07-29T09:02:05.740Z,68.54
2018-07-29T09:04:09.627Z,68.83
2018-07-29T09:05:09.513Z,68.44
2018-07-29T09:07:02.342Z,69.22
2018-07-29T09:08:02.206Z,69.12
2018-07-29T09:10:06.043Z,69.25
2018-07-29T09:11:05.976Z,69.02
2018-07-29T09:13:09.859Z,69.15
2018-07-29T09:14:10.413Z,69.45
2018-07-29T09:16:13.578Z,68.38
2018-07-29T09:17:13.576Z,68.38
2018-07-29T09:19:17.399Z,68.18
2018-07-29T09:20:17.272Z,68.77
2018-07-29T09:22:21.257Z,69.19
2018-07-29T09:23:21.090Z,67.73
2018-07-29T09:25:24.892Z,68.99
2018-07-29T09:26:24.882Z,68.80
2018-07-29T09:28:28.784Z,66.76
2018-07-29T09:29:28.594Z,64.62
2018-07-29T09:31:32.461Z,64.91
2018-07-29T09:32:32.404Z,65.40
2018-07-29T09:34:36.262Z,65.30
2018-07-29T09:35:36.142Z,65.63
2018-07-29T09:37:28.935Z,67.86
2018-07-29T09:38:28.838Z,68.35
2018-07-29T09:40:32.725Z,68.54
2018-07-29T09:41:32.607Z,66.89
2018-07-29T09:42:32.538Z,66.79
2018-07-29T09:43:32.526Z,66.99
2018-07-29T09:44:32.400Z,65.72
2018-07-29T09:45:32.468Z,65.23
2018-07-29T09:46:32.269Z,65.33
2018-07-29T09:47:32.264Z,65.53
2018-07-29T09:48:32.230Z,64.36
2018-07-29T09:49:32.066Z,65.08
2018-07-29T09:50:31.997Z,64.10
2018-07-29T09:51:31.935Z,64.20
2018-07-29T09:52:31.870Z,65.37
2018-07-29T09:53:31.791Z,64.39
2018-07-29T09:54:31.732Z,64.49
2018-07-29T09:55:31.656Z,66.34
2018-07-29T09:56:31.590Z,65.08
2018-07-29T09:57:31.531Z,65.85
2018-07-29T09:58:31.454Z,66.63
2018-07-29T09:59:31.388Z,66.63
2018-07-29T10:00:31.317Z,66.05
2018-07-29T10:01:31.307Z,65.69
2018-07-29T10:02:31.260Z,65.79
2018-07-29T10:03:31.199Z,64.23
2018-07-29T10:04:31.133Z,64.23
2018-07-29T10:05:31.052Z,64.62
2018-07-29T10:06:30.976Z,63.09
2018-07-29T10:07:30.844Z,62.60
2018-07-29T10:08:30.839Z,62.90
2018-07-29T10:09:31.278Z,62.70
2018-07-29T10:10:30.695Z,62.12
2018-07-29T10:11:30.602Z,62.02
2018-07-29T10:12:30.590Z,60.75
2018-07-29T10:13:30.510Z,60.36
2018-07-29T10:14:30.439Z,60.30
2018-07-29T10:15:30.329Z,59.91
2018-07-29T10:16:30.306Z,59.10
2018-07-29T10:17:30.773Z,58.45
2018-07-29T10:18:30.180Z,58.35
2018-07-29T10:19:30.069Z,58.15
2018-07-29T10:20:29.983Z,57.76
2018-07-29T10:21:29.908Z,58.25
2018-07-29T10:22:29.846Z,58.25
2018-07-29T10:23:29.780Z,59.23
2018-07-29T10:24:29.729Z,59.52
2018-07-29T10:25:29.644Z,58.25
2018-07-29T10:26:29.577Z,57.96
2018-07-29T10:27:29.520Z,57.37
2018-07-29T10:28:29.446Z,57.47
2018-07-29T10:29:29.373Z,58.25
2018-07-29T10:30:29.325Z,58.45
2018-07-29T10:31:29.245Z,58.15
2018-07-29T10:32:29.175Z,57.70
2018-07-29T10:33:29.115Z,57.50
2018-07-29T10:34:29.048Z,58.18
2018-07-29T10:35:28.972Z,57.89
2018-07-29T10:36:28.907Z,58.09
2018-07-29T10:37:28.844Z,58.50
2018-07-29T10:38:28.774Z,58.31
2018-07-29T10:39:28.708Z,58.22
2018-07-29T10:40:28.643Z,56.00
2018-07-29T10:41:28.591Z,56.10
2018-07-29T10:42:28.510Z,56.20
2018-07-29T10:43:28.453Z,57.07
2018-07-29T10:44:28.378Z,55.90
2018-07-29T10:45:28.310Z,53.56
2018-07-29T10:46:28.256Z,52.48
2018-07-29T10:47:28.238Z,53.85
2018-07-29T10:50:10.759Z,50.92
2018-07-29T10:51:10.615Z,51.90
2018-07-29T10:53:14.510Z,52.00
2018-07-29T10:54:14.400Z,52.48
2018-07-29T10:56:18.260Z,50.80
2018-07-29T10:57:18.191Z,50.51
2018-07-29T10:59:22.074Z,51.61
2018-07-29T11:00:21.962Z,52.19
2018-07-29T11:02:25.813Z,52.09
2018-07-29T11:03:25.739Z,51.90
2018-07-29T11:04:25.677Z,52.58
2018-07-29T11:05:25.607Z,53.75
2018-07-29T11:06:25.546Z,52.02
2018-07-29T11:07:25.476Z,51.04
2018-07-29T11:08:25.416Z,50.65
2018-07-29T11:09:25.344Z,49.78
2018-07-29T11:10:25.281Z,48.00
2018-07-29T11:11:25.217Z,49.78
2018-07-29T11:12:25.146Z,48.88
2018-07-29T11:13:25.085Z,49.27
2018-07-29T11:14:25.023Z,50.14
2018-07-29T11:15:24.956Z,51.70
2018-07-29T11:16:24.927Z,51.12
2018-07-29T11:17:24.877Z,51.43
2018-07-29T11:18:25.396Z,52.61
2018-07-29T11:19:24.750Z,52.12
2018-07-29T11:20:24.691Z,53.00
2018-07-29T11:21:25.477Z,53.97
2018-07-29T11:22:25.397Z,53.71
2018-07-29T11:23:24.495Z,53.61
2018-07-29T11:24:24.450Z,52.73
2018-07-29T11:25:24.372Z,52.34
2018-07-29T11:26:24.282Z,53.61
2018-07-29T11:27:24.237Z,52.15
2018-07-29T11:28:24.911Z,50.98
2018-07-29T11:29:24.095Z,51.56
2018-07-29T11:30:24.026Z,52.17
2018-07-29T11:31:23.896Z,50.02
2018-07-29T11:32:23.832Z,50.81
2018-07-29T11:33:23.772Z,51.59
2018-07-29T11:34:23.756Z,52.56
2018-07-29T11:35:23.713Z,52.66
2018-07-29T11:36:23.637Z,52.49
2018-07-29T11:37:23.568Z,51.61
2018-07-29T11:38:23.495Z,52.59
2018-07-29T11:39:23.438Z,50.83
2018-07-29T11:40:24.001Z,49.55
2018-07-29T11:41:23.306Z,50.95
2018-07-29T11:42:23.231Z,49.75
2018-07-29T11:43:23.179Z,48.97
2018-07-29T11:44:23.054Z,49.26
2018-07-29T11:45:22.983Z,49.95
2018-07-29T11:46:22.920Z,51.32
2018-07-29T11:47:22.852Z,50.93
2018-07-29T11:48:22.788Z,51.81
2018-07-29T11:49:22.754Z,50.83
2018-07-29T11:50:22.674Z,51.05
2018-07-29T11:51:22.593Z,50.76
2018-07-29T11:52:22.532Z,50.37
2018-07-29T11:53:22.481Z,50.07
2018-07-29T11:54:22.415Z,49.68
2018-07-29T11:55:22.336Z,50.10
2018-07-29T11:56:22.267Z,50.68
2018-07-29T11:57:22.270Z,50.78
2018-07-29T11:58:22.145Z,49.90
2018-07-29T11:59:22.125Z,49.60
2018-07-29T12:00:22.080Z,49.31
2018-07-29T12:01:21.999Z,49.90
2018-07-29T12:02:21.951Z,48.75
2018-07-29T12:03:21.892Z,49.02
2018-07-29T12:04:21.746Z,49.24
2018-07-29T12:05:21.735Z,47.77
2018-07-29T12:06:21.705Z,49.04
2018-07-29T12:07:21.584Z,48.75
2018-07-29T12:08:21.552Z,48.94
2018-07-29T12:09:21.513Z,48.46
2018-07-29T12:10:21.360Z,47.87
2018-07-29T12:11:21.349Z,48.85
2018-07-29T12:12:21.233Z,48.07
2018-07-29T12:13:21.164Z,47.89
2018-07-29T12:14:21.117Z,47.79
2018-07-29T12:15:21.038Z,47.89
2018-07-29T12:16:20.969Z,45.64
2018-07-29T12:17:20.907Z,43.19
2018-07-29T12:18:20.915Z,43.58
2018-07-29T12:19:21.390Z,43.37
2018-07-29T12:20:20.792Z,43.27
2018-07-29T12:21:20.707Z,42.09
2018-07-29T12:22:20.655Z,43.09
2018-07-29T12:23:20.532Z,44.27
2018-07-29T12:24:20.538Z,44.17
2018-07-29T12:25:20.429Z,41.03
2018-07-29T12:26:20.425Z,40.84
2018-07-29T12:27:20.326Z,40.64
2018-07-29T12:28:20.250Z,40.64
2018-07-29T12:29:20.205Z,40.84
2018-07-29T12:30:20.079Z,41.42
2018-07-29T12:31:20.024Z,39.29
2018-07-29T12:32:19.945Z,39.37
2018-07-29T12:33:19.880Z,40.84
2018-07-29T12:34:19.814Z,41.52
2018-07-29T12:35:19.785Z,41.33
2018-07-29T12:36:19.685Z,41.92
2018-07-29T12:37:19.622Z,41.35
2018-07-29T12:38:19.622Z,40.37
2018-07-29T12:39:19.557Z,40.27
2018-07-29T12:40:19.525Z,40.37
2018-07-29T12:41:19.429Z,40.25
2018-07-29T12:42:19.394Z,39.86
2018-07-29T12:43:19.330Z,40.35
2018-07-29T12:44:19.924Z,39.96
2018-07-29T12:45:19.217Z,39.76
2018-07-29T12:46:19.059Z,41.23
2018-07-29T12:47:18.991Z,40.66
2018-07-29T12:48:18.937Z,40.27
2018-07-29T12:49:18.869Z,39.29
2018-07-29T12:50:18.891Z,39.31
2018-07-29T12:51:18.750Z,39.51
2018-07-29T12:52:18.688Z,41.80
2018-07-29T12:53:18.631Z,39.15
2018-07-29T12:54:18.635Z,39.95
2018-07-29T12:55:18.561Z,37.21
2018-07-29T12:56:18.501Z,38.01
2018-07-29T12:57:18.452Z,37.52
2018-07-29T12:58:18.404Z,37.23
2018-07-29T12:59:18.350Z,36.93
2018-07-29T13:00:18.314Z,38.11
2018-07-29T13:01:18.213Z,37.74
2018-07-29T13:02:18.172Z,37.93
2018-07-29T13:03:18.108Z,37.84
2018-07-29T13:04:18.019Z,37.15
2018-07-29T13:05:17.974Z,38.44
2018-07-29T13:06:17.919Z,37.65
2018-07-29T13:07:17.814Z,36.59
2018-07-29T13:08:17.818Z,36.49
2018-07-29T13:09:17.748Z,37.67
2018-07-29T13:10:17.701Z,36.99
2018-07-29T13:11:17.640Z,38.26
2018-07-29T13:12:17.581Z,36.88
2018-07-29T13:13:17.488Z,37.57
2018-07-29T13:14:17.467Z,37.49
2018-07-29T13:15:17.385Z,37.69
2018-07-29T13:16:17.329Z,37.20
2018-07-29T13:17:17.275Z,37.30
2018-07-29T13:18:17.235Z,37.49